Station History

Weather Underground - logo

Station Historical Data
Daily Summary for December 26, 2017 Units:  English    Metric   Both
« Previous Day
Next Day »
Daily Weekly Monthly Yearly Custom
  High: Low: Average:
Temperature: 62.8 °F 40.4 °F 48.7 °F
Dew Point: 43.5 °F 36.8 °F 39.5 °F
Humidity: 91 % 39 % 73 %
Wind Speed: 3.5 mph 0.0 mph 0.3 mph
Wind Gust: 3.5 mph - -
Wind:- - SW
Pressure: 30.28 in 30.19 in -
Precipitation: 0.00 in    
Historical Graphs
 
 
Tabular Data for December 26, 2017
Time Temperature Dew Point Pressure Wind Wind Speed Wind Gust Humidity Rainfall Rate (Hourly)
00:01 43.2 °F 39.0 °F 30.20 in Calm     85 % 0.00 in
00:06 43.0 °F 38.8 °F 30.20 in Calm     85 % 0.00 in
00:07 42.9 °F 38.7 °F 30.20 in Calm     85 % 0.00 in
00:11 42.8 °F 38.9 °F 30.20 in Calm     86 % 0.00 in
00:12 42.8 °F 38.9 °F 30.20 in Calm     86 % 0.00 in
00:17 42.7 °F 38.8 °F 30.19 in Calm     86 % 0.00 in
00:21 42.5 °F 38.6 °F 30.19 in Calm     86 % 0.00 in
00:26 42.1 °F 38.2 °F 30.20 in Calm     86 % 0.00 in
00:27 42.0 °F 38.1 °F 30.20 in Calm     86 % 0.00 in
00:28 41.8 °F 37.9 °F 30.20 in Calm     86 % 0.00 in
00:33 41.3 °F 37.7 °F 30.19 in Calm     87 % 0.00 in
00:35 41.2 °F 37.6 °F 30.19 in Calm     87 % 0.00 in
00:38 41.0 °F 37.7 °F 30.19 in Calm     88 % 0.00 in
00:41 41.0 °F 38.0 °F 30.20 in Calm     89 % 0.00 in
00:46 40.9 °F 37.9 °F 30.20 in Calm     89 % 0.00 in
00:48 40.8 °F 37.8 °F 30.20 in Calm     89 % 0.00 in
00:49 40.8 °F 37.8 °F 30.20 in Calm     89 % 0.00 in
00:54 40.7 °F 37.7 °F 30.20 in Calm     89 % 0.00 in
00:58 40.7 °F 38.0 °F 30.20 in Calm     90 % 0.00 in
00:59 40.7 °F 38.0 °F 30.20 in Calm     90 % 0.00 in
01:04 40.7 °F 38.0 °F 30.20 in Calm     90 % 0.00 in
01:05 40.7 °F 38.0 °F 30.20 in Calm     90 % 0.00 in
01:06 40.8 °F 38.1 °F 30.20 in Calm     90 % 0.00 in
01:07 40.8 °F 38.1 °F 30.20 in Calm     90 % 0.00 in
01:11 40.9 °F 38.2 °F 30.20 in Calm     90 % 0.00 in
01:16 40.9 °F 37.9 °F 30.21 in Calm     89 % 0.00 in
01:17 40.9 °F 38.2 °F 30.21 in Calm     90 % 0.00 in
01:19 40.9 °F 38.2 °F 30.21 in Calm     90 % 0.00 in
01:24 40.9 °F 37.9 °F 30.21 in Calm     89 % 0.00 in
01:27 40.8 °F 37.8 °F 30.21 in Calm     89 % 0.00 in
01:32 40.8 °F 38.1 °F 30.21 in Calm     90 % 0.00 in
01:35 40.9 °F 38.2 °F 30.21 in Calm     90 % 0.00 in
01:36 41.0 °F 38.3 °F 30.21 in Calm     90 % 0.00 in
01:41 41.1 °F 38.4 °F 30.22 in Calm     90 % 0.00 in
01:43 41.2 °F 38.5 °F 30.21 in Calm     90 % 0.00 in
01:44 41.2 °F 38.5 °F 30.21 in Calm     90 % 0.00 in
01:49 41.3 °F 38.6 °F 30.22 in Calm     90 % 0.00 in
01:54 41.6 °F 38.6 °F 30.22 in Calm     89 % 0.00 in
01:56 41.8 °F 38.8 °F 30.22 in Calm     89 % 0.00 in
01:58 41.8 °F 38.8 °F 30.22 in Calm     89 % 0.00 in
02:02 41.9 °F 38.6 °F 30.23 in Calm     88 % 0.00 in
02:04 41.9 °F 38.6 °F 30.22 in Calm     88 % 0.00 in
02:07 41.9 °F 38.6 °F 30.22 in Calm     88 % 0.00 in
02:12 41.8 °F 38.5 °F 30.22 in Calm     88 % 0.00 in
02:13 41.8 °F 38.5 °F 30.22 in Calm     88 % 0.00 in
02:18 41.7 °F 38.4 °F 30.23 in Calm     88 % 0.00 in
02:20 41.7 °F 38.4 °F 30.23 in Calm     88 % 0.00 in
02:23 41.7 °F 38.7 °F 30.23 in Calm     89 % 0.00 in
02:27 41.9 °F 38.9 °F 30.23 in Calm     89 % 0.00 in
02:29 42.1 °F 39.1 °F 30.23 in Calm     89 % 0.00 in
02:34 42.4 °F 39.1 °F 30.23 in Calm     88 % 0.00 in
02:39 42.3 °F 38.7 °F 30.23 in Calm     87 % 0.00 in
02:40 42.3 °F 38.7 °F 30.23 in Calm     87 % 0.00 in
02:45 42.2 °F 38.6 °F 30.23 in Calm     87 % 0.00 in
02:46 42.2 °F 38.6 °F 30.23 in Calm     87 % 0.00 in
02:50 42.1 °F 38.8 °F 30.23 in Calm     88 % 0.00 in
02:51 42.0 °F 38.7 °F 30.23 in Calm     88 % 0.00 in
02:56 42.0 °F 38.7 °F 30.23 in Calm     88 % 0.00 in
02:58 42.0 °F 38.7 °F 30.23 in Calm     88 % 0.00 in
03:00 42.0 °F 38.7 °F 30.23 in Calm     88 % 0.00 in
03:05 42.0 °F 38.7 °F 30.23 in Calm     88 % 0.00 in
03:10 41.9 °F 38.6 °F 30.23 in Calm     88 % 0.00 in
03:15 41.7 °F 38.4 °F 30.23 in Calm     88 % 0.00 in
03:17 41.7 °F 38.4 °F 30.23 in Calm     88 % 0.00 in
03:19 41.7 °F 38.4 °F 30.23 in Calm     88 % 0.00 in
03:24 41.6 °F 38.6 °F 30.22 in Calm     89 % 0.00 in
03:29 41.9 °F 38.9 °F 30.22 in Calm     89 % 0.00 in
03:33 42.0 °F 39.0 °F 30.22 in Calm     89 % 0.00 in
03:36 42.2 °F 39.2 °F 30.22 in Calm     89 % 0.00 in
03:41 42.5 °F 39.5 °F 30.22 in Calm     89 % 0.00 in
03:44 42.6 °F 39.3 °F 30.22 in Calm     88 % 0.00 in
03:49 42.6 °F 39.3 °F 30.22 in Calm     88 % 0.00 in
03:51 42.7 °F 39.4 °F 30.21 in Calm     88 % 0.00 in
03:55 42.9 °F 39.6 °F 30.21 in Calm     88 % 0.00 in
03:57 43.0 °F 39.7 °F 30.21 in Calm     88 % 0.00 in
04:02 43.2 °F 39.6 °F 30.21 in ESE 1.2 mph   87 % 0.00 in
04:03 43.2 °F 39.6 °F 30.21 in Calm     87 % 0.00 in
04:08 43.4 °F 39.5 °F 30.21 in Calm     86 % 0.00 in
04:11 43.5 °F 39.6 °F 30.21 in Calm     86 % 0.00 in
04:16 43.6 °F 39.7 °F 30.21 in Calm     86 % 0.00 in
04:17 43.5 °F 39.6 °F 30.21 in Calm     86 % 0.00 in
04:18 43.6 °F 39.7 °F 30.21 in ESE 1.2 mph 1.2 mph 86 % 0.00 in
04:23 43.5 °F 39.6 °F 30.21 in Calm     86 % 0.00 in
04:25 43.5 °F 39.6 °F 30.21 in Calm     86 % 0.00 in
04:27 43.5 °F 39.6 °F 30.21 in Calm     86 % 0.00 in
04:32 43.5 °F 39.6 °F 30.21 in Calm     86 % 0.00 in
04:34 43.5 °F 39.6 °F 30.21 in Calm     86 % 0.00 in
04:36 43.3 °F 39.4 °F 30.22 in Calm     86 % 0.00 in
04:39 43.2 °F 39.3 °F 30.22 in Calm     86 % 0.00 in
04:43 43.0 °F 39.1 °F 30.22 in Calm     86 % 0.00 in
04:48 42.8 °F 39.2 °F 30.22 in Calm     87 % 0.00 in
04:49 42.9 °F 39.3 °F 30.22 in Calm     87 % 0.00 in
04:54 42.9 °F 39.3 °F 30.22 in Calm     87 % 0.00 in
04:55 42.9 °F 39.3 °F 30.22 in Calm     87 % 0.00 in
05:00 43.0 °F 39.4 °F 30.22 in ESE 1.2 mph   87 % 0.00 in
05:02 43.1 °F 39.5 °F 30.22 in Calm     87 % 0.00 in
05:07 43.2 °F 39.3 °F 30.22 in Calm     86 % 0.00 in
05:08 43.2 °F 39.3 °F 30.22 in Calm     86 % 0.00 in
05:13 43.3 °F 39.4 °F 30.22 in Calm     86 % 0.00 in
05:15 43.2 °F 39.3 °F 30.22 in Calm     86 % 0.00 in
05:20 43.3 °F 39.4 °F 30.22 in Calm     86 % 0.00 in
05:21 43.3 °F 39.4 °F 30.22 in Calm     86 % 0.00 in
05:26 43.2 °F 39.3 °F 30.22 in Calm     86 % 0.00 in
05:31 43.1 °F 39.2 °F 30.22 in ESE 1.2 mph   86 % 0.00 in
05:32 43.1 °F 39.2 °F 30.22 in Calm     86 % 0.00 in
05:37 43.2 °F 39.3 °F 30.22 in Calm     86 % 0.00 in
05:42 43.2 °F 39.3 °F 30.22 in Calm     86 % 0.00 in
05:47 43.1 °F 39.2 °F 30.22 in Calm     86 % 0.00 in
05:49 43.1 °F 39.2 °F 30.22 in Calm     86 % 0.00 in
05:54 43.0 °F 39.4 °F 30.23 in Calm     87 % 0.00 in
05:55 43.0 °F 39.4 °F 30.22 in Calm     87 % 0.00 in
06:00 42.6 °F 39.0 °F 30.22 in Calm     87 % 0.00 in
06:01 42.6 °F 39.0 °F 30.22 in Calm     87 % 0.00 in
06:06 42.4 °F 39.1 °F 30.22 in Calm     88 % 0.00 in
06:10 42.3 °F 39.0 °F 30.23 in Calm     88 % 0.00 in
06:12 42.3 °F 39.0 °F 30.22 in Calm     88 % 0.00 in
06:16 42.2 °F 39.2 °F 30.22 in Calm     89 % 0.00 in
06:18 42.2 °F 39.2 °F 30.22 in Calm     89 % 0.00 in
06:23 41.9 °F 38.9 °F 30.22 in ESE 1.2 mph   89 % 0.00 in
06:24 41.8 °F 38.8 °F 30.22 in Calm     89 % 0.00 in
06:29 41.5 °F 38.5 °F 30.22 in ESE 2.3 mph 2.3 mph 89 % 0.00 in
06:34 41.2 °F 38.5 °F 30.23 in ESE 1.2 mph   90 % 0.00 in
06:35 41.2 °F 38.5 °F 30.23 in ESE 1.2 mph   90 % 0.00 in
06:40 40.9 °F 38.2 °F 30.23 in Calm     90 % 0.00 in
06:43 40.8 °F 38.1 °F 30.23 in Calm     90 % 0.00 in
06:48 40.6 °F 37.9 °F 30.23 in Calm     90 % 0.00 in
06:49 40.6 °F 37.9 °F 30.23 in Calm     90 % 0.00 in
06:51 40.6 °F 37.9 °F 30.23 in Calm     90 % 0.00 in
06:55 40.5 °F 38.1 °F 30.23 in Calm     91 % 0.00 in
06:57 40.5 °F 38.1 °F 30.23 in Calm     91 % 0.00 in
07:00 40.4 °F 38.0 °F 30.24 in Calm     91 % 0.00 in
07:03 40.4 °F 38.0 °F 30.23 in Calm     91 % 0.00 in
07:08 40.5 °F 38.1 °F 30.23 in ESE 1.0 mph 1.0 mph 91 % 0.00 in
07:09 40.5 °F 38.1 °F 30.24 in ESE 1.2 mph 1.2 mph 91 % 0.00 in
07:14 40.7 °F 38.3 °F 30.23 in Calm     91 % 0.00 in
07:19 40.7 °F 38.3 °F 30.24 in Calm     91 % 0.00 in
07:20 40.7 °F 38.3 °F 30.24 in Calm     91 % 0.00 in
07:23 40.8 °F 38.4 °F 30.24 in Calm     91 % 0.00 in
07:25 40.8 °F 38.4 °F 30.24 in Calm     91 % 0.00 in
07:30 40.9 °F 38.5 °F 30.24 in Calm     91 % 0.00 in
07:33 40.9 °F 38.5 °F 30.24 in Calm     91 % 0.00 in
07:38 41.0 °F 38.6 °F 30.24 in Calm     91 % 0.00 in
07:41 41.1 °F 38.7 °F 30.24 in Calm     91 % 0.00 in
07:46 41.3 °F 38.6 °F 30.24 in Calm     90 % 0.00 in
07:47 41.3 °F 38.6 °F 30.24 in Calm     90 % 0.00 in
07:52 41.5 °F 38.8 °F 30.25 in Calm     90 % 0.00 in
07:54 41.6 °F 38.9 °F 30.25 in Calm     90 % 0.00 in
07:59 41.9 °F 39.2 °F 30.25 in Calm     90 % 0.00 in
08:00 42.0 °F 39.3 °F 30.25 in Calm     90 % 0.00 in
08:02 42.2 °F 39.5 °F 30.25 in Calm     90 % 0.00 in
08:05 42.5 °F 39.8 °F 30.25 in Calm     90 % 0.00 in
08:10 43.2 °F 40.2 °F 30.25 in Calm     89 % 0.00 in
08:11 43.3 °F 40.3 °F 30.25 in Calm     89 % 0.00 in
08:16 44.5 °F 41.5 °F 30.25 in Calm     89 % 0.00 in
08:19 45.1 °F 41.2 °F 30.25 in Calm     86 % 0.00 in
08:21 45.2 °F 41.0 °F 30.25 in Calm     85 % 0.00 in
08:26 45.5 °F 40.6 °F 30.25 in Calm     83 % 0.00 in
08:31 45.8 °F 40.9 °F 30.25 in Calm     83 % 0.00 in
08:32 45.8 °F 40.9 °F 30.25 in Calm     83 % 0.00 in
08:37 46.0 °F 41.1 °F 30.25 in Calm     83 % 0.00 in
08:39 46.1 °F 41.2 °F 30.26 in Calm     83 % 0.00 in
08:44 46.1 °F 40.9 °F 30.25 in Calm     82 % 0.00 in
08:45 46.1 °F 40.9 °F 30.25 in Calm     82 % 0.00 in
08:48 46.2 °F 41.0 °F 30.25 in Calm     82 % 0.00 in
08:52 46.2 °F 41.3 °F 30.26 in Calm     83 % 0.00 in
08:57 46.6 °F 41.4 °F 30.26 in Calm     82 % 0.00 in
08:59 46.9 °F 41.7 °F 30.26 in Calm     82 % 0.00 in
09:04 47.7 °F 41.8 °F 30.26 in Calm     80 % 0.00 in
09:07 48.3 °F 41.8 °F 30.26 in Calm     78 % 0.00 in
09:10 48.7 °F 41.8 °F 30.26 in Calm     77 % 0.00 in
09:15 49.5 °F 41.9 °F 30.27 in Calm     75 % 0.00 in
09:20 49.7 °F 41.4 °F 30.27 in East 1.2 mph   73 % 0.00 in
09:21 49.7 °F 41.4 °F 30.27 in East 1.2 mph   73 % 0.00 in
09:26 50.6 °F 42.3 °F 30.27 in ESE 1.2 mph   73 % 0.00 in
09:27 50.8 °F 42.1 °F 30.27 in Calm     72 % 0.00 in
09:28 50.9 °F 42.2 °F 30.27 in Calm     72 % 0.00 in
09:33 51.0 °F 41.9 °F 30.28 in Calm     71 % 0.00 in
09:39 51.0 °F 41.6 °F 30.28 in Calm     70 % 0.00 in
09:40 51.1 °F 41.7 °F 30.28 in Calm     70 % 0.00 in
09:45 51.5 °F 42.0 °F 30.28 in Calm     70 % 0.00 in
09:47 51.6 °F 42.1 °F 30.28 in Calm     70 % 0.00 in
09:52 51.8 °F 41.9 °F 30.28 in Calm     69 % 0.00 in
09:53 51.8 °F 41.6 °F 30.28 in Calm     68 % 0.00 in
09:56 51.7 °F 41.5 °F 30.28 in Calm     68 % 0.00 in
10:00 51.7 °F 41.5 °F 30.28 in Calm     68 % 0.00 in
10:02 51.8 °F 41.9 °F 30.28 in Calm     69 % 0.00 in
10:05 52.1 °F 42.2 °F 30.28 in Calm     69 % 0.00 in
10:10 52.8 °F 42.5 °F 30.28 in Calm     68 % 0.00 in
10:11 52.8 °F 42.5 °F 30.28 in Calm     68 % 0.00 in
10:13 53.1 °F 42.4 °F 30.28 in Calm     67 % 0.00 in
10:16 53.2 °F 42.1 °F 30.28 in Calm     66 % 0.00 in
10:21 53.4 °F 41.9 °F 30.28 in Calm     65 % 0.00 in
10:26 53.2 °F 41.7 °F 30.27 in Calm     65 % 0.00 in
10:27 53.2 °F 41.7 °F 30.27 in Calm     65 % 0.00 in
10:32 53.4 °F 42.3 °F 30.27 in Calm     66 % 0.00 in
10:37 53.7 °F 42.6 °F 30.27 in Calm     66 % 0.00 in
10:39 54.2 °F 42.7 °F 30.27 in Calm     65 % 0.00 in
10:41 54.3 °F 42.4 °F 30.27 in WNW 1.2 mph 1.2 mph 64 % 0.00 in
10:45 54.4 °F 42.5 °F 30.27 in NW 1.2 mph 1.2 mph 64 % 0.00 in
10:48 54.5 °F 42.2 °F 30.27 in West 1.2 mph 1.2 mph 63 % 0.00 in
10:53 54.7 °F 43.2 °F 30.27 in Calm     65 % 0.00 in
10:54 54.9 °F 42.9 °F 30.27 in SSW 1.2 mph   64 % 0.00 in
10:58 55.5 °F 43.5 °F 30.27 in Calm     64 % 0.00 in
11:03 56.2 °F 43.3 °F 30.27 in SE 2.0 mph 2.0 mph 62 % 0.00 in
11:08 56.8 °F 43.1 °F 30.26 in South 1.2 mph   60 % 0.00 in
11:11 57.1 °F 43.3 °F 30.26 in SE 1.2 mph   60 % 0.00 in
11:13 57.1 °F 42.5 °F 30.26 in ESE 1.0 mph 1.0 mph 58 % 0.00 in
11:16 56.8 °F 42.2 °F 30.26 in NW 1.2 mph   58 % 0.00 in
11:21 56.7 °F 42.5 °F 30.26 in Calm     59 % 0.00 in
11:26 57.0 °F 41.9 °F 30.26 in Calm     57 % 0.00 in
11:31 57.1 °F 42.0 °F 30.26 in NW 2.3 mph 2.3 mph 57 % 0.00 in
11:32 57.1 °F 42.0 °F 30.26 in NW 1.2 mph 1.2 mph 57 % 0.00 in
11:37 57.2 °F 41.6 °F 30.25 in West 1.2 mph 1.2 mph 56 % 0.00 in
11:40 57.1 °F 41.5 °F 30.25 in WNW 1.2 mph   56 % 0.00 in
11:45 57.4 °F 41.8 °F 30.25 in WNW 1.2 mph 1.2 mph 56 % 0.00 in
11:47 57.6 °F 42.9 °F 30.24 in Calm     58 % 0.00 in
11:52 57.9 °F 41.3 °F 30.24 in NW 2.3 mph 2.3 mph 54 % 0.00 in
11:57 58.0 °F 41.4 °F 30.24 in North 1.2 mph   54 % 0.00 in
11:59 58.2 °F 41.1 °F 30.24 in ENE 1.2 mph   53 % 0.00 in
12:03 58.5 °F 41.9 °F 30.23 in East 1.0 mph 1.0 mph 54 % 0.00 in
12:07 59.1 °F 42.0 °F 30.23 in Calm     53 % 0.00 in
12:09 59.3 °F 41.7 °F 30.23 in ENE 1.2 mph 1.2 mph 52 % 0.00 in
12:14 59.5 °F 41.9 °F 30.22 in Calm     52 % 0.00 in
12:16 59.6 °F 42.4 °F 30.22 in Calm     53 % 0.00 in
12:17 59.7 °F 42.5 °F 30.22 in Calm     53 % 0.00 in
12:21 59.9 °F 41.7 °F 30.22 in NW 1.2 mph   51 % 0.00 in
12:23 59.8 °F 41.6 °F 30.22 in West 1.2 mph 1.2 mph 51 % 0.00 in
12:28 59.5 °F 41.3 °F 30.22 in WNW 1.2 mph 1.2 mph 51 % 0.00 in
12:29 59.5 °F 41.3 °F 30.22 in WNW 1.2 mph 1.2 mph 51 % 0.00 in
12:34 59.7 °F 41.5 °F 30.22 in NW 1.2 mph   51 % 0.00 in
12:35 59.7 °F 41.0 °F 30.21 in WNW 1.2 mph 1.2 mph 50 % 0.00 in
12:40 59.8 °F 41.1 °F 30.21 in WSW 1.2 mph   50 % 0.00 in
12:41 59.9 °F 41.2 °F 30.21 in NNW 2.0 mph 2.0 mph 50 % 0.00 in
12:44 60.0 °F 40.8 °F 30.21 in WSW 2.3 mph 2.3 mph 49 % 0.00 in
12:49 60.3 °F 41.0 °F 30.21 in WNW 1.2 mph 1.2 mph 49 % 0.00 in
12:52 60.5 °F 41.2 °F 30.21 in Calm     49 % 0.00 in
12:54 60.6 °F 40.8 °F 30.20 in NW 1.2 mph   48 % 0.00 in
12:59 61.0 °F 40.6 °F 30.20 in SE 1.2 mph 1.2 mph 47 % 0.00 in
13:04 61.1 °F 40.1 °F 30.20 in NNW 1.2 mph 1.2 mph 46 % 0.00 in
13:05 61.1 °F 40.7 °F 30.20 in Calm     47 % 0.00 in
13:10 61.4 °F 39.9 °F 30.20 in ENE 1.2 mph   45 % 0.00 in
13:12 61.4 °F 39.9 °F 30.20 in ENE 1.2 mph   45 % 0.00 in
13:17 61.6 °F 41.2 °F 30.20 in Calm     47 % 0.00 in
13:18 61.7 °F 40.1 °F 30.20 in ENE 1.2 mph   45 % 0.00 in
13:24 61.7 °F 40.1 °F 30.20 in West 1.2 mph   45 % 0.00 in
13:25 61.6 °F 40.0 °F 30.20 in WNW 2.3 mph 2.3 mph 45 % 0.00 in
13:26 61.6 °F 39.5 °F 30.19 in WNW 1.2 mph   44 % 0.00 in
13:31 61.8 °F 40.2 °F 30.19 in NW 1.2 mph 1.2 mph 45 % 0.00 in
13:36 62.0 °F 39.2 °F 30.19 in West 1.2 mph 1.2 mph 43 % 0.00 in
13:37 62.1 °F 39.9 °F 30.19 in West 1.2 mph 1.2 mph 44 % 0.00 in
13:38 62.1 °F 39.9 °F 30.19 in West 1.2 mph   44 % 0.00 in
13:43 62.5 °F 39.1 °F 30.19 in Calm     42 % 0.00 in
13:45 62.5 °F 39.1 °F 30.19 in Calm     42 % 0.00 in
13:49 62.5 °F 39.1 °F 30.19 in WNW 1.2 mph   42 % 0.00 in
13:50 62.5 °F 39.7 °F 30.19 in Calm     43 % 0.00 in
13:55 62.7 °F 39.9 °F 30.19 in NW 2.0 mph 2.0 mph 43 % 0.00 in
14:00 62.7 °F 39.3 °F 30.19 in Calm     42 % 0.00 in
14:02 62.7 °F 39.3 °F 30.19 in Calm     42 % 0.00 in
14:08 62.7 °F 38.6 °F 30.19 in NW 2.3 mph 2.3 mph 41 % 0.00 in
14:09 62.6 °F 38.6 °F 30.19 in West 1.2 mph 1.2 mph 41 % 0.00 in
14:14 62.6 °F 39.2 °F 30.19 in West 1.0 mph 1.0 mph 42 % 0.00 in
14:17 62.6 °F 39.2 °F 30.19 in North 3.5 mph 3.5 mph 42 % 0.00 in
14:19 62.7 °F 38.6 °F 30.19 in NW 1.2 mph   41 % 0.00 in
14:24 62.7 °F 38.6 °F 30.19 in Calm     41 % 0.00 in
14:25 62.8 °F 39.4 °F 30.19 in WNW 2.0 mph 2.0 mph 42 % 0.00 in
14:26 62.7 °F 38.6 °F 30.19 in NW 2.3 mph 2.3 mph 41 % 0.00 in
14:31 62.7 °F 39.3 °F 30.19 in Calm     42 % 0.00 in
14:32 62.7 °F 38.6 °F 30.19 in West 1.2 mph 1.2 mph 41 % 0.00 in
14:36 62.6 °F 38.6 °F 30.19 in Calm     41 % 0.00 in
14:38 62.6 °F 38.6 °F 30.19 in Calm     41 % 0.00 in
14:43 62.6 °F 39.2 °F 30.20 in Calm     42 % 0.00 in
14:45 62.6 °F 38.6 °F 30.19 in NW 1.2 mph 1.2 mph 41 % 0.00 in
14:48 62.6 °F 37.9 °F 30.19 in Calm     40 % 0.00 in
14:53 62.5 °F 37.2 °F 30.19 in Calm     39 % 0.00 in
14:54 62.5 °F 37.2 °F 30.19 in Calm     39 % 0.00 in
14:59 62.4 °F 37.7 °F 30.19 in SE 1.2 mph   40 % 0.00 in
15:02 62.5 °F 37.8 °F 30.19 in ESE 1.2 mph   40 % 0.00 in
15:03 62.5 °F 37.8 °F 30.19 in Calm     40 % 0.00 in
15:08 62.4 °F 37.7 °F 30.19 in Calm     40 % 0.00 in
15:12 62.3 °F 37.7 °F 30.19 in SE 1.2 mph   40 % 0.00 in
15:14 62.3 °F 38.3 °F 30.19 in Calm     41 % 0.00 in
15:17 62.2 °F 38.2 °F 30.19 in NW 1.2 mph   41 % 0.00 in
15:21 62.2 °F 38.2 °F 30.19 in Calm     41 % 0.00 in
15:23 62.2 °F 38.8 °F 30.19 in Calm     42 % 0.00 in
15:27 62.1 °F 38.1 °F 30.19 in Calm     41 % 0.00 in
15:30 62.1 °F 38.7 °F 30.19 in Calm     42 % 0.00 in
15:32 62.0 °F 38.0 °F 30.19 in Calm     41 % 0.00 in
15:37 62.0 °F 38.6 °F 30.19 in Calm     42 % 0.00 in
15:39 62.0 °F 38.6 °F 30.19 in Calm     42 % 0.00 in
15:44 61.9 °F 38.5 °F 30.19 in WNW 1.2 mph   42 % 0.00 in
15:45 61.8 °F 38.4 °F 30.19 in Calm     42 % 0.00 in
15:48 61.8 °F 38.4 °F 30.19 in Calm     42 % 0.00 in
15:53 61.7 °F 39.0 °F 30.19 in WNW 1.2 mph 1.2 mph 43 % 0.00 in
15:56 61.6 °F 39.5 °F 30.19 in Calm     44 % 0.00 in
16:01 61.4 °F 39.9 °F 30.19 in Calm     45 % 0.00 in
16:02 61.4 °F 39.9 °F 30.19 in Calm     45 % 0.00 in
16:03 61.4 °F 39.9 °F 30.19 in Calm     45 % 0.00 in
16:08 61.1 °F 40.7 °F 30.19 in Calm     47 % 0.00 in
16:11 60.9 °F 40.5 °F 30.19 in Calm     47 % 0.00 in
16:15 60.6 °F 40.2 °F 30.19 in Calm     47 % 0.00 in
16:16 60.6 °F 40.2 °F 30.19 in Calm     47 % 0.00 in
16:21 60.3 °F 40.5 °F 30.19 in Calm     48 % 0.00 in
16:23 60.2 °F 40.4 °F 30.19 in Calm     48 % 0.00 in
16:28 59.7 °F 41.0 °F 30.19 in Calm     50 % 0.00 in
16:34 59.2 °F 41.6 °F 30.20 in WNW 1.2 mph 1.2 mph 52 % 0.00 in
16:39 59.0 °F 41.4 °F 30.20 in Calm     52 % 0.00 in
16:40 58.9 °F 41.3 °F 30.20 in Calm     52 % 0.00 in
16:46 58.4 °F 41.3 °F 30.20 in Calm     53 % 0.00 in
16:49 57.9 °F 41.3 °F 30.20 in Calm     54 % 0.00 in
16:52 57.5 °F 41.4 °F 30.20 in Calm     55 % 0.00 in
16:57 56.8 °F 41.3 °F 30.20 in Calm     56 % 0.00 in
16:58 56.6 °F 41.5 °F 30.20 in Calm     57 % 0.00 in
17:03 55.8 °F 41.7 °F 30.20 in Calm     59 % 0.00 in
17:09 55.0 °F 41.4 °F 30.21 in Calm     60 % 0.00 in
17:14 54.3 °F 41.1 °F 30.21 in Calm     61 % 0.00 in
17:19 53.6 °F 41.3 °F 30.21 in Calm     63 % 0.00 in
17:20 53.5 °F 41.2 °F 30.21 in Calm     63 % 0.00 in
17:25 52.8 °F 41.4 °F 30.21 in Calm     65 % 0.00 in
17:26 52.7 °F 41.7 °F 30.21 in Calm     66 % 0.00 in
17:31 52.1 °F 41.5 °F 30.21 in Calm     67 % 0.00 in
17:32 52.0 °F 41.4 °F 30.21 in Calm     67 % 0.00 in
17:37 51.4 °F 41.2 °F 30.21 in Calm     68 % 0.00 in
17:39 51.2 °F 41.4 °F 30.21 in Calm     69 % 0.00 in
17:43 50.8 °F 41.4 °F 30.22 in Calm     70 % 0.00 in
17:48 50.4 °F 41.3 °F 30.22 in Calm     71 % 0.00 in
17:51 50.1 °F 41.1 °F 30.22 in Calm     71 % 0.00 in
17:53 50.0 °F 41.3 °F 30.22 in Calm     72 % 0.00 in
17:57 49.8 °F 41.5 °F 30.22 in Calm     73 % 0.00 in
18:02 49.6 °F 41.3 °F 30.22 in Calm     73 % 0.00 in
18:04 49.3 °F 41.4 °F 30.22 in Calm     74 % 0.00 in
18:09 49.1 °F 41.2 °F 30.22 in Calm     74 % 0.00 in
18:12 49.0 °F 41.1 °F 30.22 in Calm     74 % 0.00 in
18:15 48.9 °F 41.0 °F 30.22 in Calm     74 % 0.00 in
18:18 48.7 °F 40.8 °F 30.22 in Calm     74 % 0.00 in
18:23 48.6 °F 41.0 °F 30.22 in Calm     75 % 0.00 in
18:28 48.7 °F 41.1 °F 30.23 in Calm     75 % 0.00 in
18:29 48.7 °F 41.1 °F 30.23 in Calm     75 % 0.00 in
18:34 48.6 °F 40.7 °F 30.23 in Calm     74 % 0.00 in
18:35 48.5 °F 40.6 °F 30.23 in Calm     74 % 0.00 in
18:40 48.7 °F 40.4 °F 30.22 in Calm     73 % 0.00 in
18:45 49.2 °F 40.2 °F 30.23 in Calm     71 % 0.00 in
18:47 49.2 °F 40.2 °F 30.23 in Calm     71 % 0.00 in
18:52 48.9 °F 39.9 °F 30.23 in Calm     71 % 0.00 in
18:53 48.9 °F 39.9 °F 30.23 in Calm     71 % 0.00 in
18:58 48.4 °F 39.4 °F 30.23 in Calm     71 % 0.00 in
19:03 48.0 °F 39.0 °F 30.23 in Calm     71 % 0.00 in
19:05 47.9 °F 39.3 °F 30.23 in Calm     72 % 0.00 in
19:08 47.6 °F 39.0 °F 30.24 in Calm     72 % 0.00 in
19:14 47.2 °F 39.0 °F 30.24 in Calm     73 % 0.00 in
19:19 46.9 °F 38.3 °F 30.24 in Calm     72 % 0.00 in
19:23 46.9 °F 38.7 °F 30.24 in Calm     73 % 0.00 in
19:24 46.9 °F 38.7 °F 30.24 in Calm     73 % 0.00 in
19:28 46.9 °F 38.7 °F 30.24 in Calm     73 % 0.00 in
19:29 46.9 °F 38.3 °F 30.24 in Calm     72 % 0.00 in
19:34 46.8 °F 38.2 °F 30.24 in Calm     72 % 0.00 in
19:35 46.8 °F 38.2 °F 30.24 in Calm     72 % 0.00 in
19:40 46.8 °F 38.6 °F 30.24 in Calm     73 % 0.00 in
19:45 46.5 °F 38.3 °F 30.24 in Calm     73 % 0.00 in
19:47 46.4 °F 38.2 °F 30.24 in Calm     73 % 0.00 in
19:52 46.5 °F 38.3 °F 30.24 in Calm     73 % 0.00 in
19:54 46.5 °F 38.3 °F 30.24 in Calm     73 % 0.00 in
19:57 46.3 °F 38.5 °F 30.24 in Calm     74 % 0.00 in
20:02 46.0 °F 38.5 °F 30.24 in Calm     75 % 0.00 in
20:03 46.0 °F 38.5 °F 30.24 in Calm     75 % 0.00 in
20:08 45.7 °F 38.2 °F 30.24 in Calm     75 % 0.00 in
20:13 45.6 °F 38.5 °F 30.24 in Calm     76 % 0.00 in
20:16 45.5 °F 38.4 °F 30.24 in Calm     76 % 0.00 in
20:18 45.5 °F 38.4 °F 30.24 in Calm     76 % 0.00 in
20:23 45.2 °F 38.1 °F 30.24 in Calm     76 % 0.00 in
20:24 45.1 °F 38.3 °F 30.24 in Calm     77 % 0.00 in
20:29 44.3 °F 37.9 °F 30.25 in Calm     78 % 0.00 in
20:30 44.2 °F 37.8 °F 30.25 in Calm     78 % 0.00 in
20:35 43.9 °F 37.8 °F 30.25 in Calm     79 % 0.00 in
20:36 43.9 °F 37.8 °F 30.25 in Calm     79 % 0.00 in
20:41 43.8 °F 38.0 °F 30.25 in Calm     80 % 0.00 in
20:44 43.9 °F 38.1 °F 30.26 in Calm     80 % 0.00 in
20:47 44.0 °F 38.2 °F 30.26 in Calm     80 % 0.00 in
20:50 44.2 °F 38.4 °F 30.26 in Calm     80 % 0.00 in
20:52 44.4 °F 38.6 °F 30.26 in Calm     80 % 0.00 in
20:57 44.6 °F 38.8 °F 30.27 in Calm   0.1 mph 80 % 0.00 in
21:01 44.7 °F 38.6 °F 30.27 in NNW 1.2 mph 1.2 mph 79 % 0.00 in
21:02 44.8 °F 38.7 °F 30.27 in NNW 1.2 mph 1.2 mph 79 % 0.00 in
21:07 44.9 °F 38.5 °F 30.27 in Calm     78 % 0.00 in
21:09 44.9 °F 38.5 °F 30.27 in Calm     78 % 0.00 in
21:13 44.8 °F 38.4 °F 30.27 in Calm     78 % 0.00 in
21:18 44.9 °F 38.5 °F 30.28 in WNW 1.2 mph   78 % 0.00 in
21:19 44.9 °F 38.5 °F 30.28 in Calm     78 % 0.00 in
21:24 45.0 °F 38.6 °F 30.28 in Calm     78 % 0.00 in
21:29 44.9 °F 38.5 °F 30.28 in Calm     78 % 0.00 in
21:35 44.8 °F 38.4 °F 30.27 in Calm     78 % 0.00 in
21:36 44.8 °F 38.0 °F 30.27 in Calm     77 % 0.00 in
21:39 44.8 °F 38.4 °F 30.27 in Calm     78 % 0.00 in
21:41 44.9 °F 38.1 °F 30.27 in Calm     77 % 0.00 in
21:46 44.9 °F 38.1 °F 30.27 in Calm     77 % 0.00 in
21:47 44.9 °F 38.1 °F 30.27 in Calm     77 % 0.00 in
21:52 44.6 °F 37.8 °F 30.27 in Calm     77 % 0.00 in
21:54 44.5 °F 38.1 °F 30.27 in Calm     78 % 0.00 in
21:59 44.3 °F 37.9 °F 30.26 in Calm     78 % 0.00 in
22:03 44.1 °F 37.7 °F 30.27 in Calm     78 % 0.00 in
22:08 43.8 °F 37.4 °F 30.26 in Calm     78 % 0.00 in
22:09 43.8 °F 37.7 °F 30.26 in Calm     79 % 0.00 in
22:14 43.8 °F 37.7 °F 30.26 in Calm     79 % 0.00 in
22:15 43.7 °F 37.6 °F 30.26 in Calm     79 % 0.00 in
22:20 43.1 °F 37.3 °F 30.26 in Calm     80 % 0.00 in
22:21 43.0 °F 37.6 °F 30.26 in Calm     81 % 0.00 in
22:22 42.9 °F 37.5 °F 30.26 in Calm     81 % 0.00 in
22:26 42.4 °F 37.3 °F 30.26 in Calm     82 % 0.00 in
22:31 42.1 °F 37.6 °F 30.26 in Calm     84 % 0.00 in
22:32 42.1 °F 37.6 °F 30.26 in Calm     84 % 0.00 in
22:37 41.9 °F 37.4 °F 30.26 in Calm     84 % 0.00 in
22:38 41.9 °F 37.4 °F 30.26 in Calm     84 % 0.00 in
22:39 41.8 °F 37.3 °F 30.26 in Calm     84 % 0.00 in
22:43 41.7 °F 37.2 °F 30.26 in Calm     84 % 0.00 in
22:48 41.4 °F 36.9 °F 30.26 in Calm     84 % 0.00 in
22:49 41.3 °F 36.8 °F 30.26 in Calm     84 % 0.00 in
22:54 41.3 °F 37.1 °F 30.26 in Calm     85 % 0.00 in
22:55 41.3 °F 37.1 °F 30.26 in Calm     85 % 0.00 in
23:00 41.3 °F 37.1 °F 30.27 in Calm     85 % 0.00 in
23:02 41.3 °F 36.8 °F 30.27 in Calm     84 % 0.00 in
23:06 41.3 °F 36.8 °F 30.27 in Calm     84 % 0.00 in
23:11 41.2 °F 37.0 °F 30.27 in Calm     85 % 0.00 in
23:13 41.3 °F 36.8 °F 30.27 in Calm     84 % 0.00 in
23:15 41.3 °F 36.8 °F 30.27 in Calm     84 % 0.00 in
23:19 41.4 °F 37.2 °F 30.27 in Calm     85 % 0.00 in
23:24 41.7 °F 37.2 °F 30.27 in Calm     84 % 0.00 in
23:29 41.8 °F 37.3 °F 30.27 in Calm     84 % 0.00 in
23:34 41.9 °F 37.1 °F 30.27 in Calm     83 % 0.00 in
23:36 41.9 °F 37.1 °F 30.27 in Calm     83 % 0.00 in
23:41 41.8 °F 37.0 °F 30.27 in WNW 1.2 mph   83 % 0.00 in
23:42 41.8 °F 37.0 °F 30.27 in WNW 1.2 mph   83 % 0.00 in
23:43 41.9 °F 37.1 °F 30.27 in WNW 1.2 mph   83 % 0.00 in
23:48 42.1 °F 37.3 °F 30.27 in Calm     83 % 0.00 in
23:53 42.5 °F 37.4 °F 30.26 in WNW 1.2 mph   82 % 0.00 in
23:55 42.6 °F 37.2 °F 30.27 in NW 1.2 mph   81 % 0.00 in
23:59 42.8 °F 37.4 °F 30.26 in Calm     81 % 0.00 in
Park Place, Exeter, Tulare County, California, USA
Compliments of Weather Underground - 3.5 mb